createdAt,value
2017-07-02T00:00:37.098Z,99.90
2017-07-02T00:03:03.376Z,99.90
2017-07-02T00:05:30.430Z,99.90
2017-07-02T00:07:57.449Z,99.90
2017-07-02T00:10:23.732Z,99.90
2017-07-02T00:12:49.993Z,99.90
2017-07-02T00:15:16.260Z,99.90
2017-07-02T00:17:43.324Z,99.90
2017-07-02T00:20:09.613Z,99.90
2017-07-02T00:22:35.897Z,99.90
2017-07-02T00:25:02.155Z,99.90
2017-07-02T00:27:28.445Z,99.90
2017-07-02T00:29:54.717Z,99.90
2017-07-02T00:32:21.867Z,99.90
2017-07-02T00:34:48.146Z,99.90
2017-07-02T00:37:15.159Z,99.90
2017-07-02T00:39:41.436Z,99.90
2017-07-02T00:42:07.717Z,99.90
2017-07-02T00:44:33.994Z,99.90
2017-07-02T00:47:00.269Z,99.90
2017-07-02T00:49:26.549Z,99.90
2017-07-02T00:51:52.802Z,99.90
2017-07-02T00:54:19.111Z,99.90
2017-07-02T00:56:45.386Z,99.90
2017-07-02T00:59:12.459Z,99.90
2017-07-02T01:01:38.723Z,99.90
2017-07-02T01:04:05.029Z,99.90
2017-07-02T01:06:32.352Z,99.90
2017-07-02T01:08:58.704Z,99.90
2017-07-02T01:11:24.991Z,99.90
2017-07-02T01:13:51.275Z,99.90
2017-07-02T01:16:18.607Z,99.90
2017-07-02T01:18:44.929Z,99.90
2017-07-02T01:21:11.211Z,99.90
2017-07-02T01:23:37.463Z,99.90
2017-07-02T01:26:03.764Z,99.90
2017-07-02T01:28:30.041Z,99.90
2017-07-02T01:30:56.399Z,99.90
2017-07-02T01:33:22.693Z,99.90
2017-07-02T01:35:49.013Z,99.90
2017-07-02T01:38:15.297Z,99.90
2017-07-02T01:40:41.586Z,99.90
2017-07-02T01:43:07.915Z,99.90
2017-07-02T01:45:34.220Z,99.90
2017-07-02T01:48:00.515Z,99.90
2017-07-02T01:50:26.814Z,99.90
2017-07-02T01:52:54.293Z,99.90
2017-07-02T01:55:20.609Z,99.90
2017-07-02T01:57:47.657Z,99.90
2017-07-02T02:00:14.695Z,99.90
2017-07-02T02:02:54.274Z,99.90
2017-07-02T02:05:21.394Z,99.90
2017-07-02T02:07:47.749Z,99.90
2017-07-02T02:10:14.042Z,99.90
2017-07-02T02:12:40.326Z,99.90
2017-07-02T02:15:06.606Z,99.90
2017-07-02T02:17:32.863Z,99.90
2017-07-02T02:19:59.144Z,99.90
2017-07-02T02:22:25.445Z,99.90
2017-07-02T02:24:51.709Z,99.90
2017-07-02T02:27:17.982Z,99.90
2017-07-02T02:29:44.253Z,99.90
2017-07-02T02:32:10.515Z,99.90
2017-07-02T02:34:36.801Z,99.90
2017-07-02T02:37:03.065Z,99.90
2017-07-02T02:39:30.517Z,99.90
2017-07-02T02:41:56.801Z,99.90
2017-07-02T02:44:23.102Z,99.90
2017-07-02T02:46:49.386Z,99.90
2017-07-02T02:49:15.662Z,99.90
2017-07-02T02:51:41.946Z,99.90
2017-07-02T02:54:08.224Z,99.90
2017-07-02T02:56:34.526Z,99.90
2017-07-02T02:59:01.653Z,99.90
2017-07-02T03:01:27.955Z,99.90
2017-07-02T03:03:54.239Z,99.90
2017-07-02T03:06:21.297Z,99.90
2017-07-02T03:08:47.598Z,99.90
2017-07-02T03:11:13.940Z,99.90
2017-07-02T03:13:40.995Z,99.90
2017-07-02T03:16:07.277Z,99.90
2017-07-02T03:18:33.566Z,99.90
2017-07-02T03:20:59.875Z,99.90
2017-07-02T03:23:26.194Z,99.90
2017-07-02T03:25:59.606Z,99.90
2017-07-02T03:28:25.887Z,99.90
2017-07-02T03:30:52.207Z,99.90
2017-07-02T03:33:18.511Z,99.90
2017-07-02T03:35:44.788Z,99.90
2017-07-02T03:38:11.106Z,99.90
2017-07-02T03:40:37.422Z,99.90
2017-07-02T03:43:03.740Z,99.90
2017-07-02T03:45:30.027Z,99.90
2017-07-02T03:47:56.360Z,99.90
2017-07-02T03:50:22.646Z,99.90
2017-07-02T03:52:48.934Z,99.90
2017-07-02T03:55:15.239Z,99.90
2017-07-02T03:57:41.502Z,99.90
2017-07-02T04:00:08.526Z,99.90
2017-07-02T04:02:35.565Z,99.90
2017-07-02T04:05:01.847Z,99.90
2017-07-02T04:07:28.124Z,99.90
2017-07-02T04:09:54.412Z,99.90
2017-07-02T04:12:20.703Z,99.90
2017-07-02T04:14:47.771Z,99.90
2017-07-02T04:17:14.840Z,99.90
2017-07-02T04:19:41.140Z,99.90
2017-07-02T04:22:07.482Z,99.90
2017-07-02T04:24:34.132Z,99.90
2017-07-02T04:27:00.425Z,99.90
2017-07-02T04:29:26.710Z,99.90
2017-07-02T04:31:52.998Z,99.90
2017-07-02T04:34:20.018Z,99.90
2017-07-02T04:36:46.356Z,99.90
2017-07-02T04:39:12.684Z,99.90
2017-07-02T04:41:38.977Z,99.90
2017-07-02T04:44:12.198Z,99.90
2017-07-02T04:46:38.503Z,99.90
2017-07-02T04:49:04.787Z,99.90
2017-07-02T04:51:31.856Z,99.90
2017-07-02T04:53:58.133Z,99.90
2017-07-02T04:56:24.427Z,99.90
2017-07-02T04:58:50.765Z,99.90
2017-07-02T05:01:17.044Z,99.90
2017-07-02T05:03:44.075Z,99.90
2017-07-02T05:06:10.377Z,99.90
2017-07-02T05:08:36.662Z,99.90
2017-07-02T05:11:02.960Z,99.90
2017-07-02T05:13:29.270Z,99.90
2017-07-02T05:15:55.581Z,99.90
2017-07-02T05:18:21.854Z,99.90
2017-07-02T05:20:48.159Z,99.90
2017-07-02T05:23:14.448Z,99.90
2017-07-02T05:25:40.737Z,99.90
2017-07-02T05:28:07.017Z,99.90
2017-07-02T05:30:33.353Z,99.90
2017-07-02T05:32:59.628Z,99.90
2017-07-02T05:35:25.966Z,99.90
2017-07-02T05:37:53.005Z,99.90
2017-07-02T05:40:19.317Z,99.90
2017-07-02T05:42:45.602Z,99.90
2017-07-02T05:45:11.904Z,99.90
2017-07-02T05:47:38.952Z,99.90
2017-07-02T05:50:05.990Z,99.90
2017-07-02T05:52:32.294Z,99.90
2017-07-02T05:54:58.604Z,99.90
2017-07-02T05:57:24.912Z,99.90
2017-07-02T05:59:51.287Z,99.90
2017-07-02T06:02:17.577Z,99.90
2017-07-02T06:04:43.876Z,99.90
2017-07-02T06:07:10.190Z,99.90
2017-07-02T06:09:36.494Z,99.90
2017-07-02T06:12:02.807Z,99.90
2017-07-02T06:14:30.643Z,99.90
2017-07-02T06:16:56.954Z,99.90
2017-07-02T06:19:23.257Z,99.90
2017-07-02T06:21:49.538Z,99.90
2017-07-02T06:24:15.838Z,99.90
2017-07-02T06:26:42.133Z,99.90
2017-07-02T06:29:08.424Z,99.90
2017-07-02T06:31:34.723Z,99.90
2017-07-02T06:34:01.025Z,99.90
2017-07-02T06:36:27.309Z,99.90
2017-07-02T06:38:54.332Z,99.90
2017-07-02T06:41:20.623Z,99.90
2017-07-02T06:43:46.898Z,99.90
2017-07-02T06:46:13.966Z,99.90
2017-07-02T06:48:40.278Z,99.90
2017-07-02T06:51:06.581Z,99.90
2017-07-02T06:53:32.866Z,99.90
2017-07-02T06:55:59.167Z,99.90
2017-07-02T06:58:26.370Z,99.90
2017-07-02T07:00:52.709Z,99.90
2017-07-02T07:03:19.024Z,99.90
2017-07-02T07:05:45.327Z,99.90
2017-07-02T07:08:12.350Z,99.90
2017-07-02T07:10:38.637Z,99.90
2017-07-02T07:13:04.946Z,99.90
2017-07-02T07:15:31.234Z,99.90
2017-07-02T07:17:57.530Z,99.90
2017-07-02T07:20:23.825Z,99.90
2017-07-02T07:22:57.140Z,99.90
2017-07-02T07:25:23.453Z,99.90
2017-07-02T07:27:49.937Z,99.90
2017-07-02T07:30:16.209Z,99.90
2017-07-02T07:32:43.279Z,99.90
2017-07-02T07:35:09.545Z,99.90
2017-07-02T07:37:35.844Z,99.90
2017-07-02T07:40:02.166Z,99.90
2017-07-02T07:42:28.635Z,99.90
2017-07-02T07:44:55.392Z,99.90
2017-07-02T07:47:21.912Z,99.90
2017-07-02T07:49:48.852Z,99.90
2017-07-02T07:52:15.533Z,99.90
2017-07-02T07:54:42.142Z,99.90
2017-07-02T07:57:08.615Z,99.90
2017-07-02T07:59:34.993Z,99.90
2017-07-02T08:02:01.290Z,99.90
2017-07-02T08:04:27.660Z,99.90
2017-07-02T08:06:54.730Z,99.90
2017-07-02T08:09:21.779Z,99.90
2017-07-02T08:11:48.169Z,99.90
2017-07-02T08:14:14.497Z,99.90
2017-07-02T08:16:40.846Z,99.90
2017-07-02T08:19:07.167Z,99.90
2017-07-02T08:21:34.261Z,99.90
2017-07-02T08:24:01.319Z,99.90
2017-07-02T08:26:27.665Z,99.90
2017-07-02T08:28:53.994Z,99.90
2017-07-02T08:31:20.296Z,99.90
2017-07-02T08:33:47.398Z,99.90
2017-07-02T08:36:13.691Z,99.90
2017-07-02T08:38:40.042Z,99.90
2017-07-02T08:41:06.356Z,99.90
2017-07-02T08:43:32.701Z,99.90
2017-07-02T08:45:59.005Z,99.90
2017-07-02T08:48:25.439Z,99.90
2017-07-02T08:50:51.746Z,99.90
2017-07-02T08:53:18.812Z,99.90
2017-07-02T08:55:45.129Z,99.90
2017-07-02T08:58:11.512Z,99.90
2017-07-02T09:00:37.798Z,99.90
2017-07-02T09:03:04.846Z,99.90
2017-07-02T09:05:38.099Z,99.90
2017-07-02T09:08:04.411Z,99.90
2017-07-02T09:10:30.827Z,99.90
2017-07-02T09:12:57.115Z,99.90
2017-07-02T09:15:24.193Z,99.90
2017-07-02T09:17:50.516Z,99.90
2017-07-02T09:20:16.820Z,99.90
2017-07-02T09:22:43.943Z,99.90
2017-07-02T09:25:10.247Z,99.90
2017-07-02T09:27:36.549Z,99.90
2017-07-02T09:30:02.853Z,99.90
2017-07-02T09:32:29.172Z,99.90
2017-07-02T09:34:57.132Z,99.90
2017-07-02T09:37:23.478Z,99.90
2017-07-02T09:39:49.792Z,99.90
2017-07-02T09:42:16.191Z,99.90
2017-07-02T09:44:42.542Z,99.90
2017-07-02T09:47:08.861Z,99.90
2017-07-02T09:49:35.123Z,99.90
2017-07-02T09:52:01.411Z,99.90
2017-07-02T09:54:27.715Z,99.90
2017-07-02T09:56:54.050Z,99.90
2017-07-02T09:59:20.398Z,99.90
2017-07-02T10:01:46.716Z,99.90
2017-07-02T10:04:13.044Z,99.90
2017-07-02T10:06:39.359Z,99.90
2017-07-02T10:09:06.422Z,99.90
2017-07-02T10:11:32.729Z,99.90
2017-07-02T10:13:59.797Z,99.90
2017-07-02T10:16:26.135Z,99.90
2017-07-02T10:18:52.547Z,99.90
2017-07-02T10:21:18.853Z,99.90
2017-07-02T10:23:45.161Z,99.90
2017-07-02T10:26:11.497Z,99.90
2017-07-02T10:28:37.773Z,99.90
2017-07-02T10:31:04.794Z,99.90
2017-07-02T10:33:31.091Z,99.90
2017-07-02T10:35:57.376Z,99.90
2017-07-02T10:38:25.199Z,99.90
2017-07-02T10:40:51.474Z,99.90
2017-07-02T10:43:18.522Z,99.90
2017-07-02T10:45:44.825Z,99.90
2017-07-02T10:48:11.135Z,99.90
2017-07-02T10:50:37.418Z,99.90
2017-07-02T10:53:03.728Z,99.90
2017-07-02T10:55:30.769Z,99.90
2017-07-02T10:57:57.068Z,99.90
2017-07-02T11:00:24.350Z,99.90
2017-07-02T11:02:51.437Z,99.90
2017-07-02T11:05:17.747Z,99.90
2017-07-02T11:07:44.036Z,99.90
2017-07-02T11:10:10.345Z,99.90
2017-07-02T11:12:36.620Z,99.90
2017-07-02T11:15:03.657Z,99.90
2017-07-02T11:17:29.941Z,99.90
2017-07-02T11:19:56.271Z,99.90
2017-07-02T11:22:22.562Z,99.90
2017-07-02T11:24:50.086Z,99.90
2017-07-02T11:27:16.381Z,99.90
2017-07-02T11:29:42.702Z,99.90
2017-07-02T11:32:09.006Z,99.90
2017-07-02T11:34:36.101Z,99.90
2017-07-02T11:37:02.411Z,99.90
2017-07-02T11:39:28.697Z,99.90
2017-07-02T11:41:55.011Z,99.90
2017-07-02T11:44:21.311Z,99.90
2017-07-02T11:46:47.644Z,99.90
2017-07-02T11:49:13.940Z,99.90
2017-07-02T11:51:40.974Z,99.90
2017-07-02T11:54:07.264Z,99.90
2017-07-02T11:56:33.599Z,99.90
2017-07-02T11:58:59.900Z,99.90
2017-07-02T12:01:26.261Z,99.90
2017-07-02T12:03:52.769Z,99.90
2017-07-02T12:06:19.569Z,99.90
2017-07-02T12:08:45.870Z,99.90
2017-07-02T12:11:13.223Z,99.90
2017-07-02T12:13:40.244Z,99.90
2017-07-02T12:16:07.419Z,99.90
2017-07-02T12:18:35.185Z,99.90
2017-07-02T12:21:03.716Z,99.90
2017-07-02T12:23:32.353Z,99.90
2017-07-02T12:25:59.738Z,99.90
2017-07-02T12:28:26.826Z,99.90
2017-07-02T12:30:53.150Z,99.90
2017-07-02T12:33:19.470Z,99.90
2017-07-02T12:35:45.849Z,99.90
2017-07-02T12:38:12.429Z,99.90
2017-07-02T12:40:38.751Z,99.90
2017-07-02T12:43:05.827Z,99.90
2017-07-02T12:45:32.162Z,99.90
2017-07-02T12:47:58.589Z,99.90
2017-07-02T12:50:24.921Z,99.90
2017-07-02T12:52:51.249Z,99.90
2017-07-02T12:55:17.552Z,99.90
2017-07-02T12:57:43.874Z,99.90
2017-07-02T13:00:10.999Z,99.90
2017-07-02T13:02:37.319Z,99.90
2017-07-02T13:05:03.622Z,99.90
2017-07-02T13:07:29.941Z,99.90
2017-07-02T13:09:56.246Z,99.90
2017-07-02T13:12:23.298Z,99.90
2017-07-02T13:14:50.370Z,99.90
2017-07-02T13:17:16.655Z,99.90
2017-07-02T13:19:42.977Z,99.90
2017-07-02T13:22:09.334Z,99.90
2017-07-02T13:24:36.440Z,99.90
2017-07-02T13:27:02.941Z,99.90
2017-07-02T13:29:29.249Z,99.90
2017-07-02T13:31:57.136Z,99.90
2017-07-02T13:34:23.425Z,99.90
2017-07-02T13:36:49.721Z,99.90
2017-07-02T13:39:16.057Z,99.90
2017-07-02T13:41:42.358Z,99.90
2017-07-02T13:44:08.714Z,99.90
2017-07-02T13:46:34.998Z,99.90
2017-07-02T13:49:02.009Z,99.90
2017-07-02T13:51:28.331Z,99.90
2017-07-02T13:53:54.630Z,99.90
2017-07-02T13:56:27.904Z,99.90
2017-07-02T13:58:54.259Z,99.90
2017-07-02T14:01:20.567Z,99.90
2017-07-02T14:03:46.918Z,99.90
2017-07-02T14:06:13.338Z,99.90
2017-07-02T14:08:39.703Z,99.90
2017-07-02T14:11:06.001Z,99.90
2017-07-02T14:13:32.848Z,99.90
2017-07-02T14:15:59.182Z,99.90
2017-07-02T14:18:25.502Z,98.60
2017-07-02T14:20:51.803Z,95.10
2017-07-02T14:23:18.858Z,95.90
2017-07-02T14:25:45.900Z,94.40
2017-07-02T14:28:12.209Z,94.40
2017-07-02T14:30:38.493Z,93.70
2017-07-02T14:33:04.793Z,92.10
2017-07-02T14:35:31.876Z,95.00
2017-07-02T14:37:58.206Z,95.00
2017-07-02T14:40:24.532Z,95.10
2017-07-02T14:42:50.817Z,94.40
2017-07-02T14:45:17.191Z,94.90
2017-07-02T14:47:43.536Z,94.00
2017-07-02T14:50:09.853Z,93.60
2017-07-02T14:52:36.153Z,93.20
2017-07-02T14:55:03.184Z,94.00
2017-07-02T14:57:29.501Z,93.90
2017-07-02T14:59:55.845Z,94.40
2017-07-02T15:02:22.129Z,94.00
2017-07-02T15:04:48.468Z,91.10
2017-07-02T15:07:14.792Z,90.90
2017-07-02T15:09:41.096Z,88.50
2017-07-02T15:12:07.408Z,87.70
2017-07-02T15:14:33.745Z,90.00
2017-07-02T15:17:00.052Z,91.30
2017-07-02T15:19:26.362Z,91.20
2017-07-02T15:21:52.677Z,91.00
2017-07-02T15:24:18.983Z,90.40
2017-07-02T15:26:45.279Z,87.40
2017-07-02T15:29:12.299Z,91.10
2017-07-02T15:31:38.614Z,91.00
2017-07-02T15:34:04.941Z,92.00
2017-07-02T15:36:31.321Z,94.20
2017-07-02T15:38:58.404Z,96.50
2017-07-02T15:41:24.696Z,96.50
2017-07-02T15:43:51.812Z,97.20
2017-07-02T15:46:18.167Z,97.20
2017-07-02T15:48:45.237Z,97.90
2017-07-02T15:51:12.270Z,98.30
2017-07-02T15:53:39.321Z,97.40
2017-07-02T15:56:06.372Z,96.80
2017-07-02T15:58:33.534Z,95.00
2017-07-02T16:01:00.566Z,94.30
2017-07-02T16:03:27.658Z,94.70
2017-07-02T16:05:53.979Z,94.70
2017-07-02T16:08:20.347Z,94.20
2017-07-02T16:10:46.710Z,92.60
2017-07-02T16:13:13.279Z,91.30
2017-07-02T16:15:39.569Z,88.60
2017-07-02T16:18:06.594Z,88.70
2017-07-02T16:20:32.886Z,88.00
2017-07-02T16:22:59.177Z,90.10
2017-07-02T16:25:26.282Z,90.50
2017-07-02T16:27:52.601Z,90.50
2017-07-02T16:30:18.916Z,91.80
2017-07-02T16:32:45.266Z,92.90
2017-07-02T16:35:11.592Z,92.00
2017-07-02T16:37:38.713Z,91.60
2017-07-02T16:40:05.118Z,91.80
2017-07-02T16:42:32.172Z,90.50
2017-07-02T16:44:58.704Z,90.50
2017-07-02T16:47:25.015Z,89.20
2017-07-02T16:49:51.337Z,83.70
2017-07-02T16:52:17.640Z,80.60
2017-07-02T16:54:43.946Z,78.00
2017-07-02T16:57:10.397Z,78.00
2017-07-02T16:59:36.722Z,76.10
2017-07-02T17:02:03.003Z,74.70
2017-07-02T17:04:29.353Z,73.40
2017-07-02T17:06:55.655Z,75.10
2017-07-02T17:09:21.970Z,75.40
2017-07-02T17:11:48.272Z,73.80
2017-07-02T17:14:14.795Z,73.30
2017-07-02T17:16:41.093Z,69.90
2017-07-02T17:19:07.402Z,69.40
2017-07-02T17:21:33.703Z,69.80
2017-07-02T17:24:00.022Z,68.00
2017-07-02T17:26:26.387Z,72.60
2017-07-02T17:28:52.684Z,75.00
2017-07-02T17:31:19.003Z,78.30
2017-07-02T17:33:45.367Z,80.30
2017-07-02T17:36:11.852Z,79.90
2017-07-02T17:38:38.143Z,80.20
2017-07-02T17:41:04.437Z,81.60
2017-07-02T17:43:30.733Z,82.00
2017-07-02T17:45:57.062Z,84.80
2017-07-02T17:48:23.353Z,84.70
2017-07-02T17:50:49.651Z,84.80
2017-07-02T17:53:16.057Z,80.90
2017-07-02T17:55:43.332Z,79.30
2017-07-02T17:58:11.052Z,78.10
2017-07-02T18:00:37.586Z,78.10
2017-07-02T18:03:04.694Z,78.70
2017-07-02T18:05:31.401Z,77.00
2017-07-02T18:07:58.838Z,78.30
2017-07-02T18:10:25.206Z,78.30
2017-07-02T18:12:51.623Z,79.30
2017-07-02T18:15:18.884Z,80.90
2017-07-02T18:17:46.045Z,80.30
2017-07-02T18:20:12.518Z,80.30
2017-07-02T18:22:38.820Z,77.90
2017-07-02T18:25:05.252Z,75.10
2017-07-02T18:27:31.916Z,75.40
2017-07-02T18:29:58.322Z,76.50
2017-07-02T18:32:24.647Z,76.30
2017-07-02T18:34:58.077Z,76.40
2017-07-02T18:37:24.444Z,77.30
2017-07-02T18:39:50.737Z,76.20
2017-07-02T18:42:17.068Z,75.80
2017-07-02T18:44:43.440Z,76.90
2017-07-02T18:47:10.608Z,80.00
2017-07-02T18:49:36.956Z,79.90
2017-07-02T18:52:05.077Z,80.30
2017-07-02T18:54:31.462Z,80.20
2017-07-02T18:56:57.990Z,81.50
2017-07-02T18:59:24.551Z,83.00
2017-07-02T19:01:51.234Z,83.60
2017-07-02T19:04:18.665Z,83.60
2017-07-02T19:06:45.185Z,83.40
2017-07-02T19:09:11.664Z,83.60
2017-07-02T19:11:38.822Z,87.80
2017-07-02T19:14:05.304Z,87.80
2017-07-02T19:16:31.722Z,88.30
2017-07-02T19:18:58.268Z,89.30
2017-07-02T19:21:25.951Z,89.30
2017-07-02T19:23:52.347Z,89.50
2017-07-02T19:26:18.737Z,89.60
2017-07-02T19:28:45.133Z,90.30
2017-07-02T19:31:11.662Z,90.10
2017-07-02T19:33:38.109Z,91.20
2017-07-02T19:36:05.268Z,92.00
2017-07-02T19:38:32.199Z,92.00
2017-07-02T19:40:59.295Z,92.60
2017-07-02T19:43:25.734Z,92.50
2017-07-02T19:45:52.289Z,92.70
2017-07-02T19:48:18.603Z,92.90
2017-07-02T19:50:45.523Z,93.20
2017-07-02T19:53:12.163Z,93.30
2017-07-02T19:55:38.676Z,93.60
2017-07-02T19:58:05.022Z,93.40
2017-07-02T20:00:32.125Z,93.40
2017-07-02T20:02:59.745Z,93.80
2017-07-02T20:05:26.534Z,93.70
2017-07-02T20:07:53.691Z,93.50
2017-07-02T20:10:20.950Z,93.70
2017-07-02T20:12:48.850Z,94.10
2017-07-02T20:15:16.681Z,94.10
2017-07-02T20:17:43.307Z,94.30
2017-07-02T20:20:09.673Z,94.80
2017-07-02T20:22:36.080Z,94.60
2017-07-02T20:25:02.555Z,94.60
2017-07-02T20:27:28.977Z,95.30
2017-07-02T20:29:55.298Z,95.20
2017-07-02T20:32:22.329Z,95.60
2017-07-02T20:34:48.601Z,95.70
2017-07-02T20:37:14.876Z,95.90
2017-07-02T20:39:41.166Z,95.40
2017-07-02T20:42:07.445Z,95.70
2017-07-02T20:44:33.737Z,95.90
2017-07-02T20:47:00.036Z,96.30
2017-07-02T20:49:26.353Z,96.40
2017-07-02T20:51:53.377Z,96.30
2017-07-02T20:54:19.672Z,96.30
2017-07-02T20:56:45.978Z,96.70
2017-07-02T20:59:12.278Z,96.80
2017-07-02T21:01:38.560Z,96.80
2017-07-02T21:04:04.839Z,96.80
2017-07-02T21:06:31.128Z,96.90
2017-07-02T21:08:57.418Z,97.30
2017-07-02T21:11:24.514Z,97.80
2017-07-02T21:13:50.786Z,97.80
2017-07-02T21:16:17.873Z,97.40
2017-07-02T21:18:45.042Z,97.40
2017-07-02T21:21:11.341Z,97.30
2017-07-02T21:23:37.624Z,97.70
2017-07-02T21:26:03.936Z,98.30
2017-07-02T21:28:30.302Z,98.20
2017-07-02T21:30:57.350Z,98.20
2017-07-02T21:33:24.371Z,98.50
2017-07-02T21:35:50.668Z,98.10
2017-07-02T21:38:16.934Z,98.00
2017-07-02T21:40:43.999Z,98.50
2017-07-02T21:43:10.378Z,98.50
2017-07-02T21:45:36.806Z,98.70
2017-07-02T21:48:03.468Z,98.50
2017-07-02T21:50:29.792Z,98.50
2017-07-02T21:52:56.093Z,98.60
2017-07-02T21:55:22.369Z,98.60
2017-07-02T21:57:49.422Z,98.90
2017-07-02T22:00:15.697Z,98.90
2017-07-02T22:02:42.342Z,99.10
2017-07-02T22:05:08.646Z,99.40
2017-07-02T22:07:34.925Z,99.50
2017-07-02T22:10:01.230Z,99.40
2017-07-02T22:12:27.508Z,99.30
2017-07-02T22:14:53.797Z,99.20
2017-07-02T22:17:20.077Z,99.20
2017-07-02T22:19:47.111Z,99.80
2017-07-02T22:22:13.375Z,99.80
2017-07-02T22:24:40.397Z,99.90
2017-07-02T22:27:07.460Z,99.90
2017-07-02T22:29:34.492Z,99.90
2017-07-02T22:32:00.776Z,99.90
2017-07-02T22:34:27.062Z,99.90
2017-07-02T22:36:54.083Z,99.90
2017-07-02T22:39:20.495Z,99.90
2017-07-02T22:41:46.744Z,99.90
2017-07-02T22:44:13.042Z,99.90
2017-07-02T22:46:39.321Z,99.90
2017-07-02T22:49:05.593Z,99.90
2017-07-02T22:51:31.888Z,99.90
2017-07-02T22:53:58.212Z,99.90
2017-07-02T22:56:24.495Z,99.90
2017-07-02T22:58:50.788Z,99.90
2017-07-02T23:01:17.091Z,99.90
2017-07-02T23:03:43.367Z,99.90
2017-07-02T23:06:09.668Z,99.90
2017-07-02T23:08:36.682Z,99.90
2017-07-02T23:11:02.977Z,99.90
2017-07-02T23:13:29.246Z,99.90
2017-07-02T23:15:56.256Z,99.90
2017-07-02T23:18:23.586Z,99.90
2017-07-02T23:20:49.877Z,99.90
2017-07-02T23:23:16.159Z,99.90
2017-07-02T23:25:43.292Z,99.90
2017-07-02T23:28:09.566Z,99.90
2017-07-02T23:30:35.834Z,99.90
2017-07-02T23:33:02.123Z,99.90
2017-07-02T23:35:28.406Z,99.90
2017-07-02T23:37:54.678Z,99.90
2017-07-02T23:40:20.963Z,99.90
2017-07-02T23:42:47.258Z,99.90
2017-07-02T23:45:13.563Z,99.90
2017-07-02T23:47:39.853Z,99.90
2017-07-02T23:50:06.130Z,99.90
2017-07-02T23:52:32.411Z,99.90
2017-07-02T23:54:58.709Z,99.90
2017-07-02T23:57:24.999Z,99.90
2017-07-02T23:59:51.321Z,99.90
